Townsend, MT

7:02 AM MDT on September 22, 2014 (GMT -0600)
Helena Regional | Change Station
CLOSE
Current Station
Airport
Location: Helena,
Elevation: 3865 ft
Nearby Weather Stations

Elev 3865 ft 46.60 °N, 111.99 °W | Updated 9 minutes ago

Mostly Cloudy
Mostly Cloudy
49 °F
Feels Like 49 °F
N
0
Wind Variable Wind from North

Today
High -- | Low -- °F
--% Chance of Precip.
Yesterday
High -- | Low -- °F
Precip. -- in
7:12 AM 7:23 PM
Waning Crescent, 3% visible
Pressure 30.01 in
Visibility 10.0 miles
Clouds Clear
Dew Point 43 °F
Humidity 80%
Rainfall 0.00 in
Snow Depth 0 in , 0 in , 0 in
UV 0 out of 12
Pollen 5.60 out of 12
Air Quality Not available.
Flu Activity Not available.
METAR KHLN 221253Z 00000KT 10SM CLR 09/06 A3003 RMK AO2 SLP163 T00940061

More Conditions Fewer Conditions

Pressure 30.01 in
Visibility 10.0 miles
Clouds Clear
Dew Point 43 °F
Humidity 80%
Rainfall 0.00 in
Snow Depth 0 in , 0 in , 0 in
UV 0 out of 12
Pollen 5.60 out of 12
Air Quality Not available.
Flu Activity Not available.
METAR KHLN 221253Z 00000KT 10SM CLR 09/06 A3003 RMK AO2 SLP163 T00940061

More Conditions Fewer Conditions

10-Day Weather Forecast

Almanac

Astronomy

Sep. 22, 2014 Rise Set
Actual Time 7:12 AM MDT 7:23 PM MDT
Civil Twilight 6:42 AM MDT 7:53 PM MDT
Nautical Twilight 6:07 AM MDT 8:28 PM MDT
Astronomical Twilight 5:31 AM MDT 9:04 PM MDT
Moon 5:41 AM MDT 6:34 PM MDT
Length of Visible Light 13h 10m
Length of Day
12h 10m
Tomorrow will be 3m 15s shorter.
Waning Crescent, 3% of the Moon is Illuminated
Today
Waning Crescent
Sep 24
New
Oct 1
First Quarter
Oct 8
Full
Oct 15
Last Quarter

Today's Extremes

State Highs State Lows

Community

WunderPhotos

Upload Photos

1,755,419 photos uploaded!

Nearby

Snow Depth

Station Depth Elevation
Short Creek 0 in 7000 ft
Tepee Creek 0 in 8000 ft
Lone Mountain 0 in 8880 ft
Kraft Creek 0 in 4750 ft
Carrot Basin 1 in 9000 ft

Earthquake Activity

City Distance Mag. Time & Date
No recent earthquake activity has been reported nearby.
Minimum magnitude displayed is 2.5.

Coastal Water Temperatures

Place Temperature
No Stations Reporting

Nearby Weather Stations